sensor_id;sensor_type;location;lat;lon;timestamp;P1;durP1;ratioP1;P2;durP2;ratioP2
67456;SDS011;54319;52.038;4.640;2023-04-01T00:01:15;31.45;;;9.45;;
67456;SDS011;54319;52.038;4.640;2023-04-01T00:03:42;30.95;;;9.23;;
67456;SDS011;54319;52.038;4.640;2023-04-01T00:06:09;37.60;;;11.32;;
67456;SDS011;54319;52.038;4.640;2023-04-01T00:08:38;42.17;;;9.50;;
67456;SDS011;54319;52.038;4.640;2023-04-01T00:11:05;54.78;;;12.13;;
67456;SDS011;54319;52.038;4.640;2023-04-01T00:13:31;43.25;;;11.10;;
67456;SDS011;54319;52.038;4.640;2023-04-01T00:16:00;47.83;;;11.90;;
67456;SDS011;54319;52.038;4.640;2023-04-01T00:18:28;44.50;;;9.93;;
67456;SDS011;54319;52.038;4.640;2023-04-01T00:20:54;49.83;;;10.10;;
67456;SDS011;54319;52.038;4.640;2023-04-01T00:23:21;44.53;;;7.50;;
67456;SDS011;54319;52.038;4.640;2023-04-01T00:25:48;45.30;;;9.23;;
67456;SDS011;54319;52.038;4.640;2023-04-01T00:28:16;51.53;;;9.00;;
67456;SDS011;54319;52.038;4.640;2023-04-01T00:30:43;32.22;;;8.32;;
67456;SDS011;54319;52.038;4.640;2023-04-01T00:33:11;34.65;;;8.00;;
67456;SDS011;54319;52.038;4.640;2023-04-01T00:35:38;32.25;;;8.20;;
67456;SDS011;54319;52.038;4.640;2023-04-01T00:38:05;33.80;;;7.80;;
67456;SDS011;54319;52.038;4.640;2023-04-01T00:40:34;35.47;;;8.18;;
67456;SDS011;54319;52.038;4.640;2023-04-01T00:43:02;33.10;;;7.72;;
67456;SDS011;54319;52.038;4.640;2023-04-01T00:47:58;27.92;;;6.82;;
67456;SDS011;54319;52.038;4.640;2023-04-01T00:50:29;33.53;;;7.28;;
67456;SDS011;54319;52.038;4.640;2023-04-01T00:52:57;27.80;;;6.55;;
67456;SDS011;54319;52.038;4.640;2023-04-01T00:55:25;20.85;;;5.38;;
67456;SDS011;54319;52.038;4.640;2023-04-01T00:57:55;27.27;;;5.43;;
67456;SDS011;54319;52.038;4.640;2023-04-01T01:00:24;25.52;;;5.20;;
67456;SDS011;54319;52.038;4.640;2023-04-01T01:02:52;21.17;;;5.10;;
67456;SDS011;54319;52.038;4.640;2023-04-01T01:05:19;37.95;;;5.93;;
67456;SDS011;54319;52.038;4.640;2023-04-01T01:07:54;34.20;;;8.32;;
67456;SDS011;54319;52.038;4.640;2023-04-01T01:10:29;31.23;;;7.05;;
67456;SDS011;54319;52.038;4.640;2023-04-01T01:13:01;28.60;;;7.13;;
67456;SDS011;54319;52.038;4.640;2023-04-01T01:15:36;21.00;;;5.47;;
67456;SDS011;54319;52.038;4.640;2023-04-01T01:18:09;22.70;;;5.63;;
67456;SDS011;54319;52.038;4.640;2023-04-01T01:20:52;21.35;;;4.93;;
67456;SDS011;54319;52.038;4.640;2023-04-01T01:23:50;21.75;;;5.07;;
67456;SDS011;54319;52.038;4.640;2023-04-01T01:32:36;22.77;;;4.60;;
67456;SDS011;54319;52.038;4.640;2023-04-01T01:35:24;17.85;;;4.35;;
67456;SDS011;54319;52.038;4.640;2023-04-01T01:37:55;20.80;;;4.63;;
67456;SDS011;54319;52.038;4.640;2023-04-01T01:40:26;17.77;;;4.55;;
67456;SDS011;54319;52.038;4.640;2023-04-01T01:42:56;20.45;;;4.68;;
67456;SDS011;54319;52.038;4.640;2023-04-01T01:45:26;21.10;;;4.80;;
67456;SDS011;54319;52.038;4.640;2023-04-01T01:47:56;18.52;;;4.18;;
67456;SDS011;54319;52.038;4.640;2023-04-01T01:50:26;16.83;;;4.50;;
67456;SDS011;54319;52.038;4.640;2023-04-01T01:53:00;16.13;;;4.60;;
67456;SDS011;54319;52.038;4.640;2023-04-01T01:55:29;24.88;;;5.38;;
67456;SDS011;54319;52.038;4.640;2023-04-01T01:57:58;19.88;;;5.43;;
67456;SDS011;54319;52.038;4.640;2023-04-01T02:00:27;19.23;;;5.43;;
67456;SDS011;54319;52.038;4.640;2023-04-01T02:02:54;20.73;;;5.60;;
67456;SDS011;54319;52.038;4.640;2023-04-01T02:07:51;14.82;;;4.43;;
67456;SDS011;54319;52.038;4.640;2023-04-01T02:10:24;19.45;;;6.38;;
67456;SDS011;54319;52.038;4.640;2023-04-01T02:12:53;19.98;;;5.63;;
67456;SDS011;54319;52.038;4.640;2023-04-01T02:15:26;21.25;;;5.50;;
67456;SDS011;54319;52.038;4.640;2023-04-01T02:17:56;19.85;;;5.30;;
67456;SDS011;54319;52.038;4.640;2023-04-01T02:20:24;24.70;;;5.75;;
67456;SDS011;54319;52.038;4.640;2023-04-01T02:22:55;21.60;;;5.40;;
67456;SDS011;54319;52.038;4.640;2023-04-01T02:25:25;23.77;;;5.85;;
67456;SDS011;54319;52.038;4.640;2023-04-01T02:27:54;21.88;;;6.00;;
67456;SDS011;54319;52.038;4.640;2023-04-01T02:30:23;29.95;;;6.28;;
67456;SDS011;54319;52.038;4.640;2023-04-01T02:32:51;20.50;;;5.60;;
67456;SDS011;54319;52.038;4.640;2023-04-01T02:35:19;18.95;;;5.80;;
67456;SDS011;54319;52.038;4.640;2023-04-01T02:37:46;16.23;;;5.55;;
67456;SDS011;54319;52.038;4.640;2023-04-01T02:40:17;22.73;;;6.35;;
67456;SDS011;54319;52.038;4.640;2023-04-01T02:42:44;21.88;;;5.38;;
67456;SDS011;54319;52.038;4.640;2023-04-01T02:45:11;15.97;;;5.20;;
67456;SDS011;54319;52.038;4.640;2023-04-01T02:47:39;19.23;;;5.55;;
67456;SDS011;54319;52.038;4.640;2023-04-01T02:50:06;15.45;;;5.22;;
67456;SDS011;54319;52.038;4.640;2023-04-01T02:52:34;16.20;;;6.00;;
67456;SDS011;54319;52.038;4.640;2023-04-01T02:55:01;20.67;;;7.15;;
67456;SDS011;54319;52.038;4.640;2023-04-01T02:59:56;22.70;;;8.63;;
67456;SDS011;54319;52.038;4.640;2023-04-01T03:02:22;26.63;;;10.15;;
67456;SDS011;54319;52.038;4.640;2023-04-01T03:04:49;26.25;;;10.23;;
67456;SDS011;54319;52.038;4.640;2023-04-01T03:07:16;27.10;;;10.77;;
67456;SDS011;54319;52.038;4.640;2023-04-01T03:09:42;33.47;;;11.33;;
67456;SDS011;54319;52.038;4.640;2023-04-01T03:12:09;34.63;;;11.23;;
67456;SDS011;54319;52.038;4.640;2023-04-01T03:14:38;31.05;;;11.55;;
67456;SDS011;54319;52.038;4.640;2023-04-01T03:17:05;23.75;;;10.63;;
67456;SDS011;54319;52.038;4.640;2023-04-01T03:19:31;26.63;;;10.50;;
67456;SDS011;54319;52.038;4.640;2023-04-01T03:21:58;25.80;;;9.82;;
67456;SDS011;54319;52.038;4.640;2023-04-01T03:24:25;28.90;;;10.13;;
67456;SDS011;54319;52.038;4.640;2023-04-01T03:26:51;17.98;;;8.40;;
67456;SDS011;54319;52.038;4.640;2023-04-01T03:29:18;19.77;;;8.02;;
67456;SDS011;54319;52.038;4.640;2023-04-01T03:31:46;22.55;;;8.30;;
67456;SDS011;54319;52.038;4.640;2023-04-01T03:34:12;20.80;;;7.80;;
67456;SDS011;54319;52.038;4.640;2023-04-01T03:36:39;18.93;;;7.53;;
67456;SDS011;54319;52.038;4.640;2023-04-01T03:39:06;16.00;;;7.47;;
67456;SDS011;54319;52.038;4.640;2023-04-01T03:41:34;20.13;;;7.20;;
67456;SDS011;54319;52.038;4.640;2023-04-01T03:44:02;18.85;;;7.10;;
67456;SDS011;54319;52.038;4.640;2023-04-01T03:46:28;22.00;;;7.75;;
67456;SDS011;54319;52.038;4.640;2023-04-01T03:48:56;23.23;;;7.50;;
67456;SDS011;54319;52.038;4.640;2023-04-01T03:51:23;19.42;;;7.32;;
67456;SDS011;54319;52.038;4.640;2023-04-01T03:53:49;18.57;;;7.77;;
67456;SDS011;54319;52.038;4.640;2023-04-01T03:56:16;18.67;;;7.47;;
67456;SDS011;54319;52.038;4.640;2023-04-01T03:58:43;19.52;;;7.35;;
67456;SDS011;54319;52.038;4.640;2023-04-01T04:01:14;16.67;;;6.93;;
67456;SDS011;54319;52.038;4.640;2023-04-01T04:03:43;17.42;;;7.07;;
67456;SDS011;54319;52.038;4.640;2023-04-01T04:08:39;13.27;;;6.03;;
67456;SDS011;54319;52.038;4.640;2023-04-01T04:11:05;18.13;;;7.60;;
67456;SDS011;54319;52.038;4.640;2023-04-01T04:13:32;15.23;;;6.80;;
67456;SDS011;54319;52.038;4.640;2023-04-01T04:15:59;21.33;;;8.00;;
67456;SDS011;54319;52.038;4.640;2023-04-01T04:18:25;18.20;;;7.57;;
67456;SDS011;54319;52.038;4.640;2023-04-01T04:20:52;19.55;;;7.97;;
67456;SDS011;54319;52.038;4.640;2023-04-01T04:23:20;18.95;;;7.93;;
67456;SDS011;54319;52.038;4.640;2023-04-01T04:25:54;20.92;;;8.57;;
67456;SDS011;54319;52.038;4.640;2023-04-01T04:28:21;20.13;;;8.27;;
67456;SDS011;54319;52.038;4.640;2023-04-01T04:30:48;25.67;;;9.80;;
67456;SDS011;54319;52.038;4.640;2023-04-01T04:33:15;25.08;;;9.48;;
67456;SDS011;54319;52.038;4.640;2023-04-01T04:35:42;22.95;;;9.15;;
67456;SDS011;54319;52.038;4.640;2023-04-01T04:38:08;26.30;;;9.32;;
67456;SDS011;54319;52.038;4.640;2023-04-01T04:40:37;20.33;;;8.90;;
67456;SDS011;54319;52.038;4.640;2023-04-01T04:43:04;22.05;;;9.00;;
67456;SDS011;54319;52.038;4.640;2023-04-01T04:45:31;32.88;;;9.80;;
67456;SDS011;54319;52.038;4.640;2023-04-01T04:47:58;22.50;;;10.23;;
67456;SDS011;54319;52.038;4.640;2023-04-01T04:50:25;31.47;;;11.47;;
67456;SDS011;54319;52.038;4.640;2023-04-01T04:52:52;26.90;;;10.15;;
67456;SDS011;54319;52.038;4.640;2023-04-01T04:55:19;24.77;;;11.05;;
67456;SDS011;54319;52.038;4.640;2023-04-01T04:57:47;26.77;;;11.75;;
67456;SDS011;54319;52.038;4.640;2023-04-01T05:00:14;27.20;;;10.40;;
67456;SDS011;54319;52.038;4.640;2023-04-01T05:02:41;28.63;;;11.18;;
67456;SDS011;54319;52.038;4.640;2023-04-01T05:05:08;29.20;;;11.30;;
67456;SDS011;54319;52.038;4.640;2023-04-01T05:10:02;25.02;;;9.98;;
67456;SDS011;54319;52.038;4.640;2023-04-01T05:12:29;22.83;;;9.77;;
67456;SDS011;54319;52.038;4.640;2023-04-01T05:14:58;28.63;;;9.52;;
67456;SDS011;54319;52.038;4.640;2023-04-01T05:17:25;29.15;;;9.65;;
67456;SDS011;54319;52.038;4.640;2023-04-01T05:19:51;24.20;;;9.18;;
67456;SDS011;54319;52.038;4.640;2023-04-01T05:22:18;22.00;;;9.05;;
67456;SDS011;54319;52.038;4.640;2023-04-01T05:24:45;23.15;;;9.02;;
67456;SDS011;54319;52.038;4.640;2023-04-01T05:27:11;28.20;;;9.23;;
67456;SDS011;54319;52.038;4.640;2023-04-01T05:29:38;29.58;;;9.45;;
67456;SDS011;54319;52.038;4.640;2023-04-01T05:32:06;23.42;;;8.80;;
67456;SDS011;54319;52.038;4.640;2023-04-01T05:34:33;27.65;;;8.98;;
67456;SDS011;54319;52.038;4.640;2023-04-01T05:37:00;25.00;;;8.97;;
67456;SDS011;54319;52.038;4.640;2023-04-01T05:39:26;23.80;;;8.80;;
67456;SDS011;54319;52.038;4.640;2023-04-01T05:41:54;27.40;;;10.15;;
67456;SDS011;54319;52.038;4.640;2023-04-01T05:44:22;32.20;;;10.77;;
67456;SDS011;54319;52.038;4.640;2023-04-01T05:46:48;31.50;;;10.48;;
67456;SDS011;54319;52.038;4.640;2023-04-01T05:49:16;32.45;;;10.73;;
67456;SDS011;54319;52.038;4.640;2023-04-01T05:51:43;29.00;;;9.75;;
67456;SDS011;54319;52.038;4.640;2023-04-01T05:54:10;31.45;;;11.48;;
67456;SDS011;54319;52.038;4.640;2023-04-01T05:56:36;28.63;;;11.23;;
67456;SDS011;54319;52.038;4.640;2023-04-01T05:59:03;32.97;;;10.98;;
67456;SDS011;54319;52.038;4.640;2023-04-01T06:01:30;27.83;;;9.77;;
67456;SDS011;54319;52.038;4.640;2023-04-01T06:03:56;24.33;;;9.57;;
67456;SDS011;54319;52.038;4.640;2023-04-01T06:06:25;26.60;;;10.02;;
67456;SDS011;54319;52.038;4.640;2023-04-01T06:08:52;26.38;;;9.63;;
67456;SDS011;54319;52.038;4.640;2023-04-01T06:11:26;22.60;;;9.70;;
67456;SDS011;54319;52.038;4.640;2023-04-01T06:14:04;24.33;;;9.80;;
67456;SDS011;54319;52.038;4.640;2023-04-01T06:16:47;23.48;;;11.00;;
67456;SDS011;54319;52.038;4.640;2023-04-01T06:19:27;25.33;;;10.52;;
67456;SDS011;54319;52.038;4.640;2023-04-01T06:27:48;24.83;;;10.98;;
67456;SDS011;54319;52.038;4.640;2023-04-01T06:30:33;35.10;;;12.10;;
67456;SDS011;54319;52.038;4.640;2023-04-01T06:33:10;29.13;;;11.80;;
67456;SDS011;54319;52.038;4.640;2023-04-01T06:39:02;31.52;;;13.18;;
67456;SDS011;54319;52.038;4.640;2023-04-01T06:41:55;31.58;;;13.15;;
67456;SDS011;54319;52.038;4.640;2023-04-01T06:44:46;26.65;;;11.68;;
67456;SDS011;54319;52.038;4.640;2023-04-01T06:47:31;26.98;;;11.50;;
67456;SDS011;54319;52.038;4.640;2023-04-01T06:50:11;32.20;;;10.27;;
67456;SDS011;54319;52.038;4.640;2023-04-01T06:52:47;26.45;;;11.35;;
67456;SDS011;54319;52.038;4.640;2023-04-01T06:55:26;24.05;;;10.32;;
67456;SDS011;54319;52.038;4.640;2023-04-01T06:57:58;28.00;;;10.68;;
67456;SDS011;54319;52.038;4.640;2023-04-01T07:00:30;23.40;;;10.88;;
67456;SDS011;54319;52.038;4.640;2023-04-01T07:03:02;24.92;;;10.18;;
67456;SDS011;54319;52.038;4.640;2023-04-01T07:05:35;25.85;;;11.23;;
67456;SDS011;54319;52.038;4.640;2023-04-01T07:08:02;24.50;;;11.00;;
67456;SDS011;54319;52.038;4.640;2023-04-01T07:10:38;27.23;;;11.57;;
67456;SDS011;54319;52.038;4.640;2023-04-01T07:13:12;22.65;;;10.50;;
67456;SDS011;54319;52.038;4.640;2023-04-01T07:15:54;23.48;;;10.32;;
67456;SDS011;54319;52.038;4.640;2023-04-01T07:18:25;23.52;;;10.52;;
67456;SDS011;54319;52.038;4.640;2023-04-01T07:20:58;23.60;;;10.63;;
67456;SDS011;54319;52.038;4.640;2023-04-01T07:23:28;25.08;;;11.10;;
67456;SDS011;54319;52.038;4.640;2023-04-01T07:26:04;22.08;;;10.38;;
67456;SDS011;54319;52.038;4.640;2023-04-01T07:28:41;22.20;;;9.43;;
67456;SDS011;54319;52.038;4.640;2023-04-01T07:31:11;24.58;;;11.10;;
67456;SDS011;54319;52.038;4.640;2023-04-01T07:33:49;23.02;;;10.73;;
67456;SDS011;54319;52.038;4.640;2023-04-01T07:36:25;24.55;;;9.63;;
67456;SDS011;54319;52.038;4.640;2023-04-01T07:39:02;23.45;;;10.40;;
67456;SDS011;54319;52.038;4.640;2023-04-01T07:41:42;21.38;;;9.27;;
67456;SDS011;54319;52.038;4.640;2023-04-01T07:44:19;22.23;;;9.13;;
67456;SDS011;54319;52.038;4.640;2023-04-01T07:46:56;19.67;;;9.43;;
67456;SDS011;54319;52.038;4.640;2023-04-01T07:49:35;18.58;;;8.27;;
67456;SDS011;54319;52.038;4.640;2023-04-01T07:52:15;21.55;;;9.10;;
67456;SDS011;54319;52.038;4.640;2023-04-01T07:54:51;28.58;;;8.95;;
67456;SDS011;54319;52.038;4.640;2023-04-01T07:57:27;19.20;;;8.82;;
67456;SDS011;54319;52.038;4.640;2023-04-01T08:00:03;24.90;;;9.73;;
67456;SDS011;54319;52.038;4.640;2023-04-01T08:02:41;21.15;;;8.95;;
67456;SDS011;54319;52.038;4.640;2023-04-01T08:05:22;22.02;;;8.82;;
67456;SDS011;54319;52.038;4.640;2023-04-01T08:07:54;21.45;;;8.20;;
67456;SDS011;54319;52.038;4.640;2023-04-01T08:10:31;23.40;;;7.85;;
67456;SDS011;54319;52.038;4.640;2023-04-01T08:13:06;23.25;;;8.57;;
67456;SDS011;54319;52.038;4.640;2023-04-01T08:15:43;23.50;;;8.50;;
67456;SDS011;54319;52.038;4.640;2023-04-01T08:18:21;28.33;;;10.05;;
67456;SDS011;54319;52.038;4.640;2023-04-01T08:20:59;24.25;;;8.50;;
67456;SDS011;54319;52.038;4.640;2023-04-01T08:23:28;21.20;;;9.15;;
67456;SDS011;54319;52.038;4.640;2023-04-01T08:26:00;22.77;;;8.85;;
67456;SDS011;54319;52.038;4.640;2023-04-01T08:28:33;19.00;;;8.35;;
67456;SDS011;54319;52.038;4.640;2023-04-01T08:31:05;17.90;;;7.20;;
67456;SDS011;54319;52.038;4.640;2023-04-01T08:33:36;16.63;;;6.70;;
67456;SDS011;54319;52.038;4.640;2023-04-01T08:36:06;17.30;;;7.13;;
67456;SDS011;54319;52.038;4.640;2023-04-01T08:38:38;15.68;;;7.00;;
67456;SDS011;54319;52.038;4.640;2023-04-01T08:41:15;16.67;;;6.60;;
67456;SDS011;54319;52.038;4.640;2023-04-01T08:44:24;15.63;;;7.28;;
67456;SDS011;54319;52.038;4.640;2023-04-01T08:47:16;19.90;;;7.87;;
67456;SDS011;54319;52.038;4.640;2023-04-01T08:49:56;18.92;;;7.53;;
67456;SDS011;54319;52.038;4.640;2023-04-01T08:52:43;18.50;;;7.93;;
67456;SDS011;54319;52.038;4.640;2023-04-01T08:55:22;19.00;;;8.48;;
67456;SDS011;54319;52.038;4.640;2023-04-01T08:58:00;18.92;;;8.38;;
67456;SDS011;54319;52.038;4.640;2023-04-01T09:00:42;21.23;;;8.40;;
67456;SDS011;54319;52.038;4.640;2023-04-01T09:06:24;19.27;;;8.18;;
67456;SDS011;54319;52.038;4.640;2023-04-01T09:12:17;18.05;;;7.18;;
67456;SDS011;54319;52.038;4.640;2023-04-01T09:14:58;14.20;;;6.03;;
67456;SDS011;54319;52.038;4.640;2023-04-01T09:21:15;16.98;;;6.75;;
67456;SDS011;54319;52.038;4.640;2023-04-01T09:24:01;18.92;;;7.32;;
67456;SDS011;54319;52.038;4.640;2023-04-01T09:26:45;19.08;;;7.68;;
67456;SDS011;54319;52.038;4.640;2023-04-01T09:29:33;22.65;;;7.60;;
67456;SDS011;54319;52.038;4.640;2023-04-01T09:32:29;24.75;;;8.07;;
67456;SDS011;54319;52.038;4.640;2023-04-01T09:38:09;22.25;;;7.72;;
67456;SDS011;54319;52.038;4.640;2023-04-01T09:40:48;19.23;;;6.53;;
67456;SDS011;54319;52.038;4.640;2023-04-01T09:43:22;13.40;;;5.60;;
67456;SDS011;54319;52.038;4.640;2023-04-01T09:45:55;14.60;;;4.60;;
67456;SDS011;54319;52.038;4.640;2023-04-01T09:48:37;13.02;;;4.88;;
67456;SDS011;54319;52.038;4.640;2023-04-01T09:51:16;9.50;;;4.50;;
67456;SDS011;54319;52.038;4.640;2023-04-01T09:53:57;10.95;;;4.53;;
67456;SDS011;54319;52.038;4.640;2023-04-01T09:56:42;10.88;;;4.57;;
67456;SDS011;54319;52.038;4.640;2023-04-01T09:59:33;14.20;;;5.57;;
67456;SDS011;54319;52.038;4.640;2023-04-01T10:02:23;14.88;;;5.55;;
67456;SDS011;54319;52.038;4.640;2023-04-01T10:11:48;14.30;;;6.65;;
67456;SDS011;54319;52.038;4.640;2023-04-01T10:17:46;15.33;;;6.60;;
67456;SDS011;54319;52.038;4.640;2023-04-01T10:20:46;20.77;;;7.65;;
67456;SDS011;54319;52.038;4.640;2023-04-01T10:23:23;21.48;;;7.78;;
67456;SDS011;54319;52.038;4.640;2023-04-01T10:38:23;21.17;;;7.45;;
67456;SDS011;54319;52.038;4.640;2023-04-01T10:47:13;14.20;;;6.88;;
67456;SDS011;54319;52.038;4.640;2023-04-01T10:56:05;20.77;;;7.28;;
67456;SDS011;54319;52.038;4.640;2023-04-01T11:08:16;16.00;;;6.30;;
67456;SDS011;54319;52.038;4.640;2023-04-01T11:11:22;11.70;;;5.05;;
67456;SDS011;54319;52.038;4.640;2023-04-01T11:17:26;11.55;;;4.88;;
67456;SDS011;54319;52.038;4.640;2023-04-01T11:20:17;12.20;;;5.45;;
67456;SDS011;54319;52.038;4.640;2023-04-01T11:26:00;13.77;;;6.20;;
67456;SDS011;54319;52.038;4.640;2023-04-01T11:31:36;19.95;;;7.15;;
67456;SDS011;54319;52.038;4.640;2023-04-01T11:34:16;19.75;;;7.25;;
67456;SDS011;54319;52.038;4.640;2023-04-01T11:36:57;17.80;;;7.28;;
67456;SDS011;54319;52.038;4.640;2023-04-01T11:42:10;13.65;;;5.50;;
67456;SDS011;54319;52.038;4.640;2023-04-01T11:44:46;11.40;;;5.90;;
67456;SDS011;54319;52.038;4.640;2023-04-01T11:50:22;11.55;;;5.68;;
67456;SDS011;54319;52.038;4.640;2023-04-01T11:53:02;11.23;;;5.40;;
67456;SDS011;54319;52.038;4.640;2023-04-01T11:56:06;12.55;;;5.20;;
67456;SDS011;54319;52.038;4.640;2023-04-01T11:59:12;13.77;;;5.75;;
67456;SDS011;54319;52.038;4.640;2023-04-01T12:02:07;12.45;;;5.30;;
67456;SDS011;54319;52.038;4.640;2023-04-01T12:04:54;11.77;;;5.90;;
67456;SDS011;54319;52.038;4.640;2023-04-01T12:07:37;15.85;;;6.45;;
67456;SDS011;54319;52.038;4.640;2023-04-01T12:10:18;12.00;;;5.57;;
67456;SDS011;54319;52.038;4.640;2023-04-01T12:12:50;12.55;;;5.90;;
67456;SDS011;54319;52.038;4.640;2023-04-01T12:15:27;11.73;;;5.20;;
67456;SDS011;54319;52.038;4.640;2023-04-01T12:18:05;11.82;;;5.60;;
67456;SDS011;54319;52.038;4.640;2023-04-01T12:20:44;12.15;;;5.63;;
67456;SDS011;54319;52.038;4.640;2023-04-01T12:23:20;10.52;;;5.80;;
67456;SDS011;54319;52.038;4.640;2023-04-01T12:29:12;11.23;;;5.50;;
67456;SDS011;54319;52.038;4.640;2023-04-01T12:31:51;14.35;;;6.25;;
67456;SDS011;54319;52.038;4.640;2023-04-01T12:34:32;14.45;;;6.15;;
67456;SDS011;54319;52.038;4.640;2023-04-01T12:37:25;15.80;;;6.07;;
67456;SDS011;54319;52.038;4.640;2023-04-01T12:40:02;12.43;;;5.80;;
67456;SDS011;54319;52.038;4.640;2023-04-01T12:42:52;12.15;;;6.22;;
67456;SDS011;54319;52.038;4.640;2023-04-01T12:45:30;16.17;;;6.57;;
67456;SDS011;54319;52.038;4.640;2023-04-01T12:50:58;14.40;;;7.05;;
67456;SDS011;54319;52.038;4.640;2023-04-01T12:53:47;18.52;;;7.35;;
67456;SDS011;54319;52.038;4.640;2023-04-01T12:56:37;19.23;;;7.00;;
67456;SDS011;54319;52.038;4.640;2023-04-01T12:59:27;15.63;;;6.82;;
67456;SDS011;54319;52.038;4.640;2023-04-01T13:02:12;17.02;;;6.80;;
67456;SDS011;54319;52.038;4.640;2023-04-01T13:04:56;17.80;;;7.07;;
67456;SDS011;54319;52.038;4.640;2023-04-01T13:07:59;16.52;;;6.82;;
67456;SDS011;54319;52.038;4.640;2023-04-01T13:10:38;15.80;;;6.43;;
67456;SDS011;54319;52.038;4.640;2023-04-01T13:16:33;17.58;;;6.40;;
67456;SDS011;54319;52.038;4.640;2023-04-01T13:19:06;13.68;;;6.40;;
67456;SDS011;54319;52.038;4.640;2023-04-01T13:21:39;14.98;;;6.55;;
67456;SDS011;54319;52.038;4.640;2023-04-01T13:24:19;14.35;;;6.82;;
67456;SDS011;54319;52.038;4.640;2023-04-01T13:26:56;16.90;;;6.97;;
67456;SDS011;54319;52.038;4.640;2023-04-01T13:29:28;15.82;;;6.53;;
67456;SDS011;54319;52.038;4.640;2023-04-01T13:32:03;20.65;;;7.45;;
67456;SDS011;54319;52.038;4.640;2023-04-01T13:34:43;14.73;;;6.25;;
67456;SDS011;54319;52.038;4.640;2023-04-01T13:37:29;13.65;;;6.05;;
67456;SDS011;54319;52.038;4.640;2023-04-01T13:40:26;16.42;;;6.35;;
67456;SDS011;54319;52.038;4.640;2023-04-01T13:43:02;16.15;;;5.25;;
67456;SDS011;54319;52.038;4.640;2023-04-01T13:45:37;13.25;;;5.20;;
67456;SDS011;54319;52.038;4.640;2023-04-01T13:51:20;12.18;;;4.47;;
67456;SDS011;54319;52.038;4.640;2023-04-01T13:54:03;19.33;;;4.60;;
67456;SDS011;54319;52.038;4.640;2023-04-01T13:56:48;16.33;;;4.93;;
67456;SDS011;54319;52.038;4.640;2023-04-01T13:59:42;12.88;;;4.60;;
67456;SDS011;54319;52.038;4.640;2023-04-01T14:02:33;11.32;;;4.82;;
67456;SDS011;54319;52.038;4.640;2023-04-01T14:05:23;15.63;;;5.03;;
67456;SDS011;54319;52.038;4.640;2023-04-01T14:08:01;12.43;;;4.60;;
67456;SDS011;54319;52.038;4.640;2023-04-01T14:10:39;11.23;;;4.60;;
67456;SDS011;54319;52.038;4.640;2023-04-01T14:13:12;14.38;;;4.80;;
67456;SDS011;54319;52.038;4.640;2023-04-01T14:19:02;9.80;;;4.40;;
67456;SDS011;54319;52.038;4.640;2023-04-01T14:21:46;9.57;;;4.60;;
67456;SDS011;54319;52.038;4.640;2023-04-01T14:24:30;14.25;;;4.50;;
67456;SDS011;54319;52.038;4.640;2023-04-01T14:27:22;13.18;;;4.15;;
67456;SDS011;54319;52.038;4.640;2023-04-01T14:30:19;11.25;;;4.47;;
67456;SDS011;54319;52.038;4.640;2023-04-01T14:33:02;13.52;;;4.50;;
67456;SDS011;54319;52.038;4.640;2023-04-01T14:35:37;9.65;;;4.20;;
67456;SDS011;54319;52.038;4.640;2023-04-01T14:41:23;11.60;;;4.05;;
67456;SDS011;54319;52.038;4.640;2023-04-01T14:44:05;11.77;;;4.18;;
67456;SDS011;54319;52.038;4.640;2023-04-01T14:47:04;8.50;;;4.07;;
67456;SDS011;54319;52.038;4.640;2023-04-01T14:49:50;12.82;;;5.28;;
67456;SDS011;54319;52.038;4.640;2023-04-01T14:52:23;11.32;;;5.20;;
67456;SDS011;54319;52.038;4.640;2023-04-01T14:54:54;8.98;;;4.10;;
67456;SDS011;54319;52.038;4.640;2023-04-01T14:57:24;16.02;;;5.13;;
67456;SDS011;54319;52.038;4.640;2023-04-01T14:59:53;11.93;;;4.60;;
67456;SDS011;54319;52.038;4.640;2023-04-01T15:02:33;9.45;;;4.07;;
67456;SDS011;54319;52.038;4.640;2023-04-01T15:05:15;9.60;;;3.83;;
67456;SDS011;54319;52.038;4.640;2023-04-01T15:07:53;9.00;;;4.25;;
67456;SDS011;54319;52.038;4.640;2023-04-01T15:14:01;14.05;;;4.50;;
67456;SDS011;54319;52.038;4.640;2023-04-01T15:16:49;12.30;;;4.78;;
67456;SDS011;54319;52.038;4.640;2023-04-01T15:19:24;11.20;;;4.93;;
67456;SDS011;54319;52.038;4.640;2023-04-01T15:22:04;15.02;;;5.50;;
67456;SDS011;54319;52.038;4.640;2023-04-01T15:24:46;8.98;;;4.95;;
67456;SDS011;54319;52.038;4.640;2023-04-01T15:27:33;7.77;;;4.97;;
67456;SDS011;54319;52.038;4.640;2023-04-01T15:30:23;7.17;;;4.97;;
67456;SDS011;54319;52.038;4.640;2023-04-01T15:35:50;7.57;;;4.90;;
67456;SDS011;54319;52.038;4.640;2023-04-01T15:38:31;7.60;;;5.28;;
67456;SDS011;54319;52.038;4.640;2023-04-01T15:41:03;8.02;;;5.28;;
67456;SDS011;54319;52.038;4.640;2023-04-01T15:43:40;9.93;;;6.13;;
67456;SDS011;54319;52.038;4.640;2023-04-01T15:46:17;10.98;;;6.10;;
67456;SDS011;54319;52.038;4.640;2023-04-01T15:48:55;10.70;;;6.32;;
67456;SDS011;54319;52.038;4.640;2023-04-01T15:51:44;9.10;;;6.07;;
67456;SDS011;54319;52.038;4.640;2023-04-01T15:54:32;12.02;;;6.85;;
67456;SDS011;54319;52.038;4.640;2023-04-01T15:57:15;13.82;;;6.57;;
67456;SDS011;54319;52.038;4.640;2023-04-01T15:59:53;9.15;;;6.28;;
67456;SDS011;54319;52.038;4.640;2023-04-01T16:02:43;10.73;;;6.70;;
67456;SDS011;54319;52.038;4.640;2023-04-01T16:05:22;12.98;;;7.03;;
67456;SDS011;54319;52.038;4.640;2023-04-01T16:08:03;11.98;;;6.65;;
67456;SDS011;54319;52.038;4.640;2023-04-01T16:10:49;10.15;;;6.65;;
67456;SDS011;54319;52.038;4.640;2023-04-01T16:13:24;8.70;;;6.57;;
67456;SDS011;54319;52.038;4.640;2023-04-01T16:16:00;10.15;;;6.88;;
67456;SDS011;54319;52.038;4.640;2023-04-01T16:21:21;8.75;;;5.97;;
67456;SDS011;54319;52.038;4.640;2023-04-01T16:24:02;12.90;;;6.63;;
67456;SDS011;54319;52.038;4.640;2023-04-01T16:26:37;9.32;;;6.57;;
67456;SDS011;54319;52.038;4.640;2023-04-01T16:29:10;7.97;;;5.45;;
67456;SDS011;54319;52.038;4.640;2023-04-01T16:31:46;8.73;;;6.38;;
67456;SDS011;54319;52.038;4.640;2023-04-01T16:34:21;13.60;;;6.45;;
67456;SDS011;54319;52.038;4.640;2023-04-01T16:36:55;10.32;;;6.05;;
67456;SDS011;54319;52.038;4.640;2023-04-01T16:39:32;11.68;;;6.63;;
67456;SDS011;54319;52.038;4.640;2023-04-01T16:44:59;9.18;;;6.25;;
67456;SDS011;54319;52.038;4.640;2023-04-01T16:47:45;10.15;;;6.38;;
67456;SDS011;54319;52.038;4.640;2023-04-01T16:50:17;10.95;;;6.55;;
67456;SDS011;54319;52.038;4.640;2023-04-01T16:52:57;9.13;;;6.40;;
67456;SDS011;54319;52.038;4.640;2023-04-01T16:55:34;9.73;;;6.60;;
67456;SDS011;54319;52.038;4.640;2023-04-01T16:58:08;10.82;;;6.50;;
67456;SDS011;54319;52.038;4.640;2023-04-01T17:00:37;9.85;;;6.38;;
67456;SDS011;54319;52.038;4.640;2023-04-01T17:03:10;11.75;;;6.78;;
67456;SDS011;54319;52.038;4.640;2023-04-01T17:05:47;11.88;;;6.57;;
67456;SDS011;54319;52.038;4.640;2023-04-01T17:08:23;12.85;;;6.53;;
67456;SDS011;54319;52.038;4.640;2023-04-01T17:11:06;11.20;;;6.60;;
67456;SDS011;54319;52.038;4.640;2023-04-01T17:13:45;11.43;;;7.25;;
67456;SDS011;54319;52.038;4.640;2023-04-01T17:16:28;11.93;;;7.40;;
67456;SDS011;54319;52.038;4.640;2023-04-01T17:19:13;13.73;;;7.05;;
67456;SDS011;54319;52.038;4.640;2023-04-01T17:21:53;11.80;;;7.38;;
67456;SDS011;54319;52.038;4.640;2023-04-01T17:24:32;10.85;;;7.78;;
67456;SDS011;54319;52.038;4.640;2023-04-01T17:27:13;8.75;;;6.20;;
67456;SDS011;54319;52.038;4.640;2023-04-01T17:30:03;9.43;;;6.20;;
67456;SDS011;54319;52.038;4.640;2023-04-01T17:32:44;6.97;;;5.38;;